Iberica Hav — C6YI3 — position and weather

sailwx.info

Track history (hours):
 
Tides and Currents Weather Stations Pressure Air Temp Water Temp Dewpoint Dewpoint Depression Visibility Wind Speed Wind Dir Waves Ship Positions

Iberica Hav

Last reported at 2015-Mar-03 09:13 UTC. Time now 2015-Mar-04 16:53 UTC.
Position N 43°19' W 001°55'.

Length 88 m; draft 2.9 m.

Type: Cargo ship. MMSI: 311034400.

Date/timePositionNaut miles runAvg speedWind from/ knotsBaromVisibWave heightAir tempDewpointWater temp
2015-Mar-03 09:13N 43°19' W 001°55'3 3.7
2015-Mar-03 08:31N 43°22' W 001°56'  
2015-Feb-28 09:14N 43°24' W 001°56'5 2.6
2015-Feb-28 07:21N 43°29' W 001°55'6 5.7
2015-Feb-28 06:22N 43°30' W 001°47'3 4.1
2015-Feb-28 05:33N 43°31' W 001°43'1 0.5
2015-Feb-28 04:33N 43°30' W 001°43'1 1.3
2015-Feb-28 03:33N 43°29' W 001°45'2 1.4
2015-Feb-28 02:25N 43°28' W 001°46'1 1.4
2015-Feb-28 01:33N 43°28' W 001°48'1 1.3
2015-Feb-28 00:27N 43°27' W 001°50'1 1.4
2015-Feb-27 23:31N 43°26' W 001°51'1 1.1
2015-Feb-27 22:27N 43°26' W 001°53'1 0.7
2015-Feb-27 20:27N 43°26' W 001°54'3 3.0
2015-Feb-27 19:33N 43°25' W 001°52'1 0.9
2015-Feb-27 18:33N 43°25' W 001°53'1 1.1
2015-Feb-27 17:33N 43°25' W 001°54'2 2.3
2015-Feb-27 16:31N 43°22' W 001°54'1 0.3
2015-Feb-27 12:09N 43°22' W 001°56'2 0.4
2015-Feb-27 05:22N 43°24' W 001°59'6 1.4
2015-Feb-27 01:09N 43°26' W 001°51'1 2.2
2015-Feb-27 00:33N 43°26' W 001°49'1 1.4
2015-Feb-26 23:33N 43°25' W 001°48'4 1.1
2015-Feb-26 19:31N 43°28' W 001°53'2 1.6
2015-Feb-26 18:29N 43°28' W 001°50'2 2.0
2015-Feb-26 17:33N 43°28' W 001°48'2 2.0
2015-Feb-26 16:31N 43°28' W 001°51'1 0.2
2015-Feb-26 10:29N 43°27' W 001°50'2 1.8
2015-Feb-26 09:32N 43°26' W 001°48'4 4.2
2015-Feb-26 08:28N 43°26' W 001°54'3 0.7
2015-Feb-26 03:32N 43°29' W 001°52'4 4.1
2015-Feb-26 02:31N 43°29' W 001°46'4 3.8
2015-Feb-26 01:29N 43°29' W 001°51'3 0.8
2015-Feb-25 21:30N 43°29' W 001°47'2 2.5
2015-Feb-25 20:33N 43°30' W 001°44'8 7.7
2015-Feb-25 19:33N 43°37' W 001°43'147 7.0
2015-Feb-24 22:27N 46°04' W 001°32'6 6.7
2015-Feb-24 21:33N 46°06' W 001°24'8 7.6
2015-Feb-24 20:33N 46°03' W 001°14'9 9.0
2015-Feb-24 19:33N 45°57' W 001°05'  
2015-Feb-21 16:18N 46°10' W 001°46'7 8.6
2015-Feb-21 15:31N 46°14' W 001°53'9 8.6
2015-Feb-21 14:31N 46°20' W 002°03'11 8.6
2015-Feb-21 13:17N 46°26' W 002°15'6 8.4
2015-Feb-21 12:31N 46°30' W 002°22'  
Track history (hours):
 
Tides and Currents Weather Stations Pressure Air Temp Water Temp Dewpoint Dewpoint Depression Visibility Wind Speed Wind Dir Waves Ship Positions

Iberica Hav

Last reported at 2015-Mar-03 09:13 UTC. Time now 2015-Mar-04 16:53 UTC.
Position N 43°19' W 001°55'.

Length 88 m; draft 2.9 m.

Type: Cargo ship. MMSI: 311034400.

Date/timePositionNaut miles runAvg speedWind from/ knotsBaromVisibWave heightAir tempDewpointWater temp
2015-Mar-03 09:13N 43°19' W 001°55'3 3.7
2015-Mar-03 08:31N 43°22' W 001°56'  
2015-Feb-28 09:14N 43°24' W 001°56'5 2.6
2015-Feb-28 07:21N 43°29' W 001°55'6 5.7
2015-Feb-28 06:22N 43°30' W 001°47'3 4.1
2015-Feb-28 05:33N 43°31' W 001°43'1 0.5
2015-Feb-28 04:33N 43°30' W 001°43'1 1.3
2015-Feb-28 03:33N 43°29' W 001°45'2 1.4
2015-Feb-28 02:25N 43°28' W 001°46'1 1.4
2015-Feb-28 01:33N 43°28' W 001°48'1 1.3
2015-Feb-28 00:27N 43°27' W 001°50'1 1.4
2015-Feb-27 23:31N 43°26' W 001°51'1 1.1
2015-Feb-27 22:27N 43°26' W 001°53'1 0.7
2015-Feb-27 20:27N 43°26' W 001°54'3 3.0
2015-Feb-27 19:33N 43°25' W 001°52'1 0.9
2015-Feb-27 18:33N 43°25' W 001°53'1 1.1
2015-Feb-27 17:33N 43°25' W 001°54'2 2.3
2015-Feb-27 16:31N 43°22' W 001°54'1 0.3
2015-Feb-27 12:09N 43°22' W 001°56'2 0.4
2015-Feb-27 05:22N 43°24' W 001°59'6 1.4
2015-Feb-27 01:09N 43°26' W 001°51'1 2.2
2015-Feb-27 00:33N 43°26' W 001°49'1 1.4
2015-Feb-26 23:33N 43°25' W 001°48'4 1.1
2015-Feb-26 19:31N 43°28' W 001°53'2 1.6
2015-Feb-26 18:29N 43°28' W 001°50'2 2.0
2015-Feb-26 17:33N 43°28' W 001°48'2 2.0
2015-Feb-26 16:31N 43°28' W 001°51'1 0.2
2015-Feb-26 10:29N 43°27' W 001°50'2 1.8
2015-Feb-26 09:32N 43°26' W 001°48'4 4.2
2015-Feb-26 08:28N 43°26' W 001°54'3 0.7
2015-Feb-26 03:32N 43°29' W 001°52'4 4.1
2015-Feb-26 02:31N 43°29' W 001°46'4 3.8
2015-Feb-26 01:29N 43°29' W 001°51'3 0.8
2015-Feb-25 21:30N 43°29' W 001°47'2 2.5
2015-Feb-25 20:33N 43°30' W 001°44'8 7.7
2015-Feb-25 19:33N 43°37' W 001°43'147 7.0
2015-Feb-24 22:27N 46°04' W 001°32'6 6.7
2015-Feb-24 21:33N 46°06' W 001°24'8 7.6
2015-Feb-24 20:33N 46°03' W 001°14'9 9.0
2015-Feb-24 19:33N 45°57' W 001°05'  
2015-Feb-21 16:18N 46°10' W 001°46'7 8.6
2015-Feb-21 15:31N 46°14' W 001°53'9 8.6
2015-Feb-21 14:31N 46°20' W 002°03'11 8.6
2015-Feb-21 13:17N 46°26' W 002°15'6 8.4
2015-Feb-21 12:31N 46°30' W 002°22'  

Dump ship's entire track history